createdAt,value
2022-08-22T00:01:40.243Z,101551.34
2022-08-22T00:04:41.599Z,101543.53
2022-08-22T00:07:52.912Z,101548.47
2022-08-22T00:10:33.542Z,101545.38
2022-08-22T00:13:09.122Z,101544.22
2022-08-22T00:15:49.388Z,101555.50
2022-08-22T00:18:42.248Z,101557.16
2022-08-22T00:21:18.581Z,101553.84
2022-08-22T00:24:14.752Z,101552.72
2022-08-22T00:27:13.480Z,101567.13
2022-08-22T00:29:57.273Z,101562.69
2022-08-22T00:32:43.643Z,101561.84
2022-08-22T00:35:22.006Z,101561.00
2022-08-22T00:38:02.581Z,101563.78
2022-08-22T00:41:04.480Z,101568.72
2022-08-22T00:43:54.791Z,101565.38
2022-08-22T00:46:38.495Z,101556.53
2022-08-22T00:49:37.763Z,101569.81
2022-08-22T00:52:18.242Z,101563.44
2022-08-22T00:55:20.857Z,101564.03
2022-08-22T00:57:55.322Z,101565.38
2022-08-22T01:00:34.326Z,101561.53
2022-08-22T01:03:32.250Z,101557.25
2022-08-22T01:06:12.866Z,101560.19
2022-08-22T01:08:59.297Z,101552.66
2022-08-22T01:12:13.812Z,101549.28
2022-08-22T01:14:56.237Z,101555.66
2022-08-22T01:17:44.173Z,101549.06
2022-08-22T01:20:27.942Z,101552.91
2022-08-22T01:23:40.541Z,101550.13
2022-08-22T01:27:05.989Z,101544.63
2022-08-22T01:29:49.414Z,101553.97
2022-08-22T01:32:39.613Z,101552.91
2022-08-22T01:35:36.206Z,101545.69
2022-08-22T01:38:20.147Z,101555.31
2022-08-22T01:40:53.801Z,101552.81
2022-08-22T01:44:00.258Z,101550.03
2022-08-22T01:46:43.859Z,101548.38
2022-08-22T01:49:33.759Z,101558.31
2022-08-22T01:52:14.632Z,101554.50
2022-08-22T01:54:56.065Z,101551.13
2022-08-22T01:57:28.105Z,101556.66
2022-08-22T02:00:08.824Z,101559.63
2022-08-22T02:02:53.588Z,101561.00
2022-08-22T02:05:31.729Z,101562.34
2022-08-22T02:08:17.512Z,101560.66
2022-08-22T02:11:12.953Z,101561.50
2022-08-22T02:13:46.348Z,101563.41
2022-08-22T02:16:33.743Z,101552.63
2022-08-22T02:19:23.438Z,101562.25
2022-08-22T02:22:24.172Z,101556.97
2022-08-22T02:25:17.999Z,101561.88
2022-08-22T02:27:58.831Z,101558.78
2022-08-22T02:30:51.245Z,101561.78
2022-08-22T02:33:32.566Z,101563.72
2022-08-22T02:36:15.658Z,101557.13
2022-08-22T02:39:05.729Z,101564.31
2022-08-22T02:41:59.946Z,101561.31
2022-08-22T02:44:35.719Z,101560.72
2022-08-22T02:47:14.964Z,101560.94
2022-08-22T02:49:59.126Z,101564.81
2022-08-22T02:53:00.211Z,101560.63
2022-08-22T02:55:54.491Z,101551.75
2022-08-22T02:58:36.772Z,101556.69
2022-08-22T03:01:31.668Z,101554.16
2022-08-22T03:04:31.327Z,101558.84
2022-08-22T03:07:25.900Z,101543.38
2022-08-22T03:10:23.903Z,101551.03
2022-08-22T03:13:08.032Z,101548.53
2022-08-22T03:15:40.012Z,101552.75
2022-08-22T03:18:48.867Z,101552.25
2022-08-22T03:21:45.567Z,101542.91
2022-08-22T03:24:26.208Z,101551.75
2022-08-22T03:27:03.596Z,101543.97
2022-08-22T03:29:44.140Z,101552.75
2022-08-22T03:32:20.414Z,101546.59
2022-08-22T03:35:03.679Z,101551.53
2022-08-22T03:37:40.489Z,101559.22
2022-08-22T03:40:41.840Z,101553.09
2022-08-22T03:43:38.560Z,101559.72
2022-08-22T03:46:22.190Z,101554.69
2022-08-22T03:49:33.280Z,101564.03
2022-08-22T03:52:28.642Z,101563.44
2022-08-22T03:55:12.605Z,101567.88
2022-08-22T03:58:27.598Z,101570.88
2022-08-22T04:01:39.202Z,101564.53
2022-08-22T04:04:11.153Z,101568.34
2022-08-22T04:06:45.736Z,101570.53
2022-08-22T04:09:32.437Z,101574.38
2022-08-22T04:12:34.527Z,101563.34
2022-08-22T04:15:28.111Z,101579.28
2022-08-22T04:18:18.593Z,101579.03
2022-08-22T04:21:16.414Z,101576.53
2022-08-22T04:23:50.873Z,101577.59
2022-08-22T04:26:36.614Z,101577.03
2022-08-22T04:29:19.851Z,101586.38
2022-08-22T04:32:14.633Z,101585.53
2022-08-22T04:34:57.783Z,101587.69
2022-08-22T04:37:37.697Z,101587.94
2022-08-22T04:40:13.417Z,101581.81
2022-08-22T04:43:00.497Z,101589.50
2022-08-22T04:45:43.610Z,101584.81
2022-08-22T04:48:22.461Z,101587.34
2022-08-22T04:51:16.985Z,101589.00
2022-08-22T04:53:55.981Z,101592.84
2022-08-22T04:56:43.333Z,101591.78
2022-08-22T04:59:17.603Z,101596.22
2022-08-22T05:01:56.255Z,101588.78
2022-08-22T05:04:32.383Z,101592.94
2022-08-22T05:07:17.565Z,101585.53
2022-08-22T05:09:56.408Z,101599.06
2022-08-22T05:12:33.717Z,101593.91
2022-08-22T05:15:10.140Z,101602.78
2022-08-22T05:17:43.625Z,101603.63
2022-08-22T05:20:21.026Z,101601.66
2022-08-22T05:22:58.358Z,101607.78
2022-08-22T05:25:33.851Z,101598.44
2022-08-22T05:28:31.363Z,101602.88
2022-08-22T05:31:06.259Z,101607.78
2022-08-22T05:33:40.464Z,101612.47
2022-08-22T05:36:23.499Z,101612.97
2022-08-22T05:39:05.876Z,101606.94
2022-08-22T05:41:38.772Z,101606.47
2022-08-22T05:44:23.064Z,101617.84
2022-08-22T05:47:05.086Z,101614.34
2022-08-22T05:49:59.572Z,101618.53
2022-08-22T05:52:50.016Z,101610.84
2022-08-22T05:55:30.630Z,101618.06
2022-08-22T05:58:30.251Z,101618.06
2022-08-22T06:01:22.163Z,101618.94
2022-08-22T06:04:24.655Z,101622.25
2022-08-22T06:07:01.733Z,101621.78
2022-08-22T06:09:59.509Z,101630.41
2022-08-22T06:12:55.908Z,101637.59
2022-08-22T06:15:33.642Z,101635.16
2022-08-22T06:18:13.511Z,101636.34
2022-08-22T06:20:51.170Z,101629.25
2022-08-22T06:23:46.741Z,101639.91
2022-08-22T06:26:21.229Z,101642.25
2022-08-22T06:28:55.855Z,101637.44
2022-08-22T06:31:44.522Z,101636.47
2022-08-22T06:34:30.121Z,101638.72
2022-08-22T06:37:06.492Z,101648.06
2022-08-22T06:39:42.262Z,101647.00
2022-08-22T06:42:17.730Z,101643.47
2022-08-22T06:44:54.495Z,101645.41
2022-08-22T06:47:30.401Z,101649.59
2022-08-22T06:50:07.131Z,101650.16
2022-08-22T06:53:01.029Z,101654.09
2022-08-22T06:55:34.480Z,101648.34
2022-08-22T06:58:22.651Z,101652.53
2022-08-22T07:01:05.642Z,101656.72
2022-08-22T07:03:47.672Z,101654.78
2022-08-22T07:06:29.793Z,101659.47
2022-08-22T07:09:05.545Z,101664.50
2022-08-22T07:11:41.182Z,101670.63
2022-08-22T07:14:16.451Z,101676.50
2022-08-22T07:16:55.326Z,101672.41
2022-08-22T07:19:38.822Z,101672.97
2022-08-22T07:22:21.797Z,101679.09
2022-08-22T07:24:58.367Z,101679.69
2022-08-22T07:27:44.033Z,101691.91
2022-08-22T07:30:27.660Z,101685.88
2022-08-22T07:33:25.232Z,101679.38
2022-08-22T07:36:18.674Z,101676.69
2022-08-22T07:39:04.135Z,101689.22
2022-08-22T07:41:56.200Z,101686.31
2022-08-22T07:44:38.480Z,101686.38
2022-08-22T07:47:13.558Z,101681.19
2022-08-22T07:50:08.412Z,101686.56
2022-08-22T07:52:42.720Z,101690.59
2022-08-22T07:55:23.813Z,101681.88
2022-08-22T07:57:58.218Z,101690.81
2022-08-22T08:00:31.612Z,101685.69
2022-08-22T08:03:07.072Z,101691.03
2022-08-22T08:05:42.385Z,101688.28
2022-08-22T08:08:21.399Z,101686.66
2022-08-22T08:10:56.315Z,101683.91
2022-08-22T08:13:37.114Z,101678.97
2022-08-22T08:16:19.728Z,101687.84
2022-08-22T08:18:56.940Z,101682.09
2022-08-22T08:21:37.667Z,101675.31
2022-08-22T08:24:14.320Z,101679.78
2022-08-22T08:27:11.373Z,101683.72
2022-08-22T08:29:55.251Z,101680.63
2022-08-22T08:32:32.262Z,101680.31
2022-08-22T08:35:23.109Z,101669.50
2022-08-22T08:38:04.455Z,101672.53
2022-08-22T08:41:11.957Z,101661.47
2022-08-22T08:44:04.776Z,101666.47
2022-08-22T08:47:11.199Z,101666.28
2022-08-22T08:50:22.152Z,101660.53
2022-08-22T08:53:10.447Z,101654.53
2022-08-22T08:55:48.001Z,101649.84
2022-08-22T08:58:33.746Z,101663.09
2022-08-22T09:01:16.565Z,101660.31
2022-08-22T09:03:58.477Z,101662.06
2022-08-22T09:07:09.420Z,101657.16
2022-08-22T09:09:54.232Z,101648.94
2022-08-22T09:13:12.276Z,101647.66
2022-08-22T09:15:55.058Z,101647.78
2022-08-22T09:19:02.918Z,101652.78
2022-08-22T09:21:53.844Z,101646.41
2022-08-22T09:24:52.377Z,101641.69
2022-08-22T09:27:37.319Z,101643.38
2022-08-22T09:30:28.872Z,101636.75
2022-08-22T09:33:12.443Z,101634.03
2022-08-22T09:36:05.070Z,101641.25
2022-08-22T09:38:55.812Z,101633.22
2022-08-22T09:42:02.778Z,101623.09
2022-08-22T09:45:13.760Z,101626.44
2022-08-22T09:48:02.225Z,101625.63
2022-08-22T09:50:54.609Z,101622.56
2022-08-22T09:53:53.120Z,101612.13
2022-08-22T09:56:49.852Z,101618.81
2022-08-22T09:59:58.133Z,101614.47
2022-08-22T10:02:45.508Z,101615.59
2022-08-22T10:05:43.820Z,101613.41
2022-08-22T10:08:37.421Z,101618.94
2022-08-22T10:11:19.551Z,101613.09
2022-08-22T10:13:57.389Z,101612.00
2022-08-22T10:16:40.532Z,101608.75
2022-08-22T10:19:23.390Z,101611.00
2022-08-22T10:22:30.149Z,101603.28
2022-08-22T10:25:06.792Z,101606.59
2022-08-22T10:27:52.092Z,101614.66
2022-08-22T10:30:32.613Z,101603.56
2022-08-22T10:33:17.995Z,101602.47
2022-08-22T10:36:05.034Z,101610.78
2022-08-22T10:39:02.051Z,101601.38
2022-08-22T10:42:16.926Z,101603.09
2022-08-22T10:45:03.999Z,101590.09
2022-08-22T10:47:42.008Z,101589.03
2022-08-22T10:50:33.642Z,101591.81
2022-08-22T10:53:34.959Z,101583.53
2022-08-22T10:56:27.581Z,101591.28
2022-08-22T10:59:11.519Z,101596.03
2022-08-22T11:02:09.535Z,101596.28
2022-08-22T11:05:10.629Z,101587.13
2022-08-22T11:08:04.357Z,101588.22
2022-08-22T11:11:02.532Z,101590.50
2022-08-22T11:13:57.106Z,101593.56
2022-08-22T11:17:00.761Z,101587.75
2022-08-22T11:19:44.817Z,101579.25
2022-08-22T11:22:47.149Z,101585.09
2022-08-22T11:25:42.499Z,101578.44
2022-08-22T11:28:25.504Z,101588.16
2022-08-22T11:31:31.684Z,101591.44
2022-08-22T11:34:26.447Z,101578.88
2022-08-22T11:37:20.483Z,101574.66
2022-08-22T11:40:20.509Z,101578.59
2022-08-22T11:43:11.953Z,101568.91
2022-08-22T11:45:52.560Z,101569.13
2022-08-22T11:49:06.489Z,101568.94
2022-08-22T11:51:47.135Z,101568.84
2022-08-22T11:54:30.952Z,101560.00
2022-08-22T11:57:20.673Z,101547.56
2022-08-22T12:00:01.644Z,101556.47
2022-08-22T12:03:12.603Z,101540.59
2022-08-22T12:06:25.780Z,101552.50
2022-08-22T12:09:11.753Z,101537.50
2022-08-22T12:11:50.265Z,101535.22
2022-08-22T12:14:48.682Z,101541.19
2022-08-22T12:18:01.383Z,101537.25
2022-08-22T12:21:01.560Z,101531.56
2022-08-22T12:23:49.178Z,101527.50
2022-08-22T12:26:29.788Z,101528.13
2022-08-22T12:29:39.677Z,101524.50
2022-08-22T12:32:54.191Z,101525.59
2022-08-22T12:35:38.224Z,101520.34
2022-08-22T12:38:38.237Z,101511.81
2022-08-22T12:41:34.736Z,101519.75
2022-08-22T12:44:19.872Z,101507.06
2022-08-22T12:46:57.835Z,101515.91
2022-08-22T12:49:40.642Z,101512.84
2022-08-22T12:52:23.032Z,101511.00
2022-08-22T12:55:19.876Z,101510.88
2022-08-22T12:58:07.449Z,101506.41
2022-08-22T13:00:44.646Z,101512.44
2022-08-22T13:03:33.091Z,101513.00
2022-08-22T13:06:33.905Z,101507.00
2022-08-22T13:09:09.983Z,101499.75
2022-08-22T13:11:43.186Z,101497.53
2022-08-22T13:14:25.919Z,101498.44
2022-08-22T13:17:10.190Z,101501.66
2022-08-22T13:20:11.452Z,101500.34
2022-08-22T13:22:45.065Z,101493.31
2022-08-22T13:25:26.045Z,101494.56
2022-08-22T13:28:00.488Z,101497.50
2022-08-22T13:30:37.500Z,101486.19
2022-08-22T13:33:14.927Z,101487.72
2022-08-22T13:35:53.656Z,101480.94
2022-08-22T13:38:28.627Z,101492.00
2022-08-22T13:41:02.384Z,101489.66
2022-08-22T13:44:05.161Z,101493.88
2022-08-22T13:46:52.821Z,101496.13
2022-08-22T13:49:35.906Z,101487.06
2022-08-22T13:52:31.958Z,101491.25
2022-08-22T13:55:16.186Z,101483.16
2022-08-22T13:57:52.137Z,101478.31
2022-08-22T14:00:57.267Z,101493.88
2022-08-22T14:03:52.017Z,101483.56
2022-08-22T14:06:46.861Z,101483.72
2022-08-22T14:09:44.561Z,101473.97
2022-08-22T14:12:33.707Z,101474.47
2022-08-22T14:15:26.516Z,101482.06
2022-08-22T14:18:13.052Z,101480.06
2022-08-22T14:20:46.137Z,101481.47
2022-08-22T14:23:29.315Z,101480.34
2022-08-22T14:26:02.171Z,101475.22
2022-08-22T14:28:35.924Z,101488.06
2022-08-22T14:31:13.755Z,101468.75
2022-08-22T14:33:58.711Z,101474.78
2022-08-22T14:36:47.461Z,101465.41
2022-08-22T14:39:25.625Z,101463.75
2022-08-22T14:42:10.092Z,101467.97
2022-08-22T14:45:08.459Z,101463.47
2022-08-22T14:47:55.025Z,101460.81
2022-08-22T14:50:46.240Z,101453.44
2022-08-22T14:53:19.370Z,101458.72
2022-08-22T14:56:12.419Z,101452.63
2022-08-22T14:58:56.107Z,101457.22
2022-08-22T15:01:32.806Z,101439.69
2022-08-22T15:04:08.685Z,101444.84
2022-08-22T15:06:51.339Z,101448.09
2022-08-22T15:09:40.495Z,101442.91
2022-08-22T15:12:24.745Z,101455.50
2022-08-22T15:14:59.576Z,101449.91
2022-08-22T15:17:43.874Z,101444.59
2022-08-22T15:20:28.743Z,101449.28
2022-08-22T15:23:09.906Z,101441.88
2022-08-22T15:25:46.935Z,101445.31
2022-08-22T15:28:20.814Z,101455.44
2022-08-22T15:31:08.067Z,101445.53
2022-08-22T15:33:43.322Z,101452.00
2022-08-22T15:36:26.922Z,101442.84
2022-08-22T15:39:46.898Z,101449.88
2022-08-22T15:42:26.344Z,101447.97
2022-08-22T15:44:59.472Z,101450.25
2022-08-22T15:47:39.649Z,101445.81
2022-08-22T15:50:15.372Z,101436.66
2022-08-22T15:53:10.252Z,101443.13
2022-08-22T15:56:07.070Z,101442.09
2022-08-22T15:58:48.708Z,101443.84
2022-08-22T16:01:23.991Z,101435.28
2022-08-22T16:03:58.871Z,101446.16
2022-08-22T16:06:46.699Z,101435.97
2022-08-22T16:09:42.679Z,101435.56
2022-08-22T16:12:45.888Z,101439.75
2022-08-22T16:15:52.829Z,101429.88
2022-08-22T16:18:36.483Z,101433.19
2022-08-22T16:21:10.575Z,101439.34
2022-08-22T16:23:55.579Z,101432.69
2022-08-22T16:26:30.644Z,101431.59
2022-08-22T16:29:25.410Z,101428.81
2022-08-22T16:32:02.205Z,101426.13
2022-08-22T16:34:37.094Z,101430.00
2022-08-22T16:37:09.073Z,101427.22
2022-08-22T16:39:51.402Z,101432.78
2022-08-22T16:42:26.304Z,101421.38
2022-08-22T16:45:24.861Z,101430.03
2022-08-22T16:47:58.527Z,101420.59
2022-08-22T16:50:37.108Z,101429.47
2022-08-22T16:53:37.503Z,101429.47
2022-08-22T16:56:28.134Z,101429.50
2022-08-22T16:59:38.486Z,101428.41
2022-08-22T17:02:18.527Z,101431.78
2022-08-22T17:05:30.044Z,101436.19
2022-08-22T17:08:14.213Z,101430.34
2022-08-22T17:10:56.615Z,101435.38
2022-08-22T17:14:00.112Z,101436.78
2022-08-22T17:16:43.716Z,101437.63
2022-08-22T17:19:38.075Z,101438.47
2022-08-22T17:22:32.664Z,101435.69
2022-08-22T17:25:31.135Z,101440.66
2022-08-22T17:28:08.659Z,101438.47
2022-08-22T17:31:17.632Z,101439.31
2022-08-22T17:34:14.305Z,101445.13
2022-08-22T17:37:09.264Z,101440.69
2022-08-22T17:40:10.228Z,101431.53
2022-08-22T17:43:03.726Z,101436.81
2022-08-22T17:46:03.307Z,101439.88
2022-08-22T17:48:48.200Z,101436.81
2022-08-22T17:51:44.396Z,101442.38
2022-08-22T17:54:31.505Z,101443.19
2022-08-22T17:57:08.164Z,101439.56
2022-08-22T17:59:46.609Z,101441.25
2022-08-22T18:02:33.588Z,101449.00
2022-08-22T18:05:17.974Z,101448.19
2022-08-22T18:07:57.865Z,101451.78
2022-08-22T18:10:38.538Z,101453.13
2022-08-22T18:13:15.439Z,101452.88
2022-08-22T18:15:52.797Z,101461.72
2022-08-22T18:18:31.836Z,101459.50
2022-08-22T18:21:12.066Z,101467.25
2022-08-22T18:23:45.686Z,101470.56
2022-08-22T18:26:42.085Z,101476.59
2022-08-22T18:29:21.011Z,101477.13
2022-08-22T18:32:19.038Z,101487.09
2022-08-22T18:35:05.955Z,101481.25
2022-08-22T18:37:44.002Z,101480.41
2022-08-22T18:40:37.051Z,101487.84
2022-08-22T18:43:39.108Z,101484.47
2022-08-22T18:46:47.325Z,101493.06
2022-08-22T18:49:23.826Z,101497.72
2022-08-22T18:52:15.319Z,101491.59
2022-08-22T18:55:08.301Z,101510.09
2022-08-22T18:58:07.811Z,101499.25
2022-08-22T19:01:08.749Z,101503.31
2022-08-22T19:04:05.530Z,101501.91
2022-08-22T19:07:10.506Z,101503.22
2022-08-22T19:09:45.030Z,101498.19
2022-08-22T19:12:36.558Z,101497.03
2022-08-22T19:15:14.034Z,101510.25
2022-08-22T19:18:06.864Z,101512.16
2022-08-22T19:20:58.925Z,101504.09
2022-08-22T19:23:43.563Z,101502.91
2022-08-22T19:26:43.381Z,101499.59
2022-08-22T19:29:18.220Z,101502.28
2022-08-22T19:31:56.629Z,101510.84
2022-08-22T19:34:28.963Z,101515.22
2022-08-22T19:37:32.496Z,101507.19
2022-08-22T19:40:08.855Z,101506.63
2022-08-22T19:42:44.076Z,101514.91
2022-08-22T19:45:26.538Z,101507.72
2022-08-22T19:48:05.463Z,101506.88
2022-08-22T19:50:38.045Z,101501.88
2022-08-22T19:53:24.635Z,101499.38
2022-08-22T19:55:56.653Z,101504.06
2022-08-22T19:58:32.587Z,101505.97
2022-08-22T20:01:25.393Z,101509.28
2022-08-22T20:04:06.010Z,101510.38
2022-08-22T20:06:52.190Z,101506.53
2022-08-22T20:09:57.828Z,101516.16
2022-08-22T20:12:33.809Z,101510.63
2022-08-22T20:15:19.126Z,101509.53
2022-08-22T20:20:58.774Z,101515.31
2022-08-22T20:23:32.174Z,101516.44
2022-08-22T20:26:04.259Z,101516.94
2022-08-22T20:28:48.831Z,101523.56
2022-08-22T20:31:27.015Z,101520.78
2022-08-22T20:34:04.971Z,101523.56
2022-08-22T20:36:37.720Z,101520.25
2022-08-22T20:39:16.334Z,101521.84
2022-08-22T20:41:54.973Z,101528.47
2022-08-22T20:44:33.441Z,101529.31
2022-08-22T20:47:11.327Z,101523.19
2022-08-22T20:49:46.481Z,101523.44
2022-08-22T20:52:42.654Z,101520.69
2022-08-22T20:55:27.277Z,101529.25
2022-08-22T20:58:06.889Z,101529.50
2022-08-22T21:00:44.458Z,101529.50
2022-08-22T21:03:25.407Z,101526.16
2022-08-22T21:06:22.639Z,101533.06
2022-08-22T21:09:39.100Z,101534.13
2022-08-22T21:12:11.315Z,101539.91
2022-08-22T21:14:46.145Z,101538.28
2022-08-22T21:17:34.395Z,101538.53
2022-08-22T21:20:22.134Z,101534.91
2022-08-22T21:22:55.437Z,101535.44
2022-08-22T21:25:27.505Z,101535.44
2022-08-22T21:28:00.829Z,101535.44
2022-08-22T21:30:35.666Z,101533.78
2022-08-22T21:33:07.470Z,101539.31
2022-08-22T21:35:39.630Z,101545.91
2022-08-22T21:38:16.449Z,101540.63
2022-08-22T21:40:48.485Z,101538.16
2022-08-22T21:43:37.588Z,101542.00
2022-08-22T21:46:09.524Z,101540.84
2022-08-22T21:48:44.128Z,101545.16
2022-08-22T21:51:24.754Z,101544.59
2022-08-22T21:54:21.461Z,101545.94
2022-08-22T21:57:16.255Z,101547.28
2022-08-22T21:59:59.060Z,101548.91
2022-08-22T22:02:34.137Z,101557.19
2022-08-22T22:05:14.997Z,101549.41
2022-08-22T22:07:47.420Z,101557.97
2022-08-22T22:10:20.993Z,101559.28
2022-08-22T22:12:55.862Z,101558.13
2022-08-22T22:15:31.848Z,101559.47
2022-08-22T22:18:04.741Z,101555.56
2022-08-22T22:20:37.095Z,101569.38
2022-08-22T22:23:09.276Z,101564.13
2022-08-22T22:25:42.508Z,101565.19
2022-08-22T22:28:18.987Z,101561.00
2022-08-22T22:30:53.309Z,101564.34
2022-08-22T22:33:29.614Z,101560.75
2022-08-22T22:36:13.150Z,101575.66
2022-08-22T22:38:45.485Z,101562.94
2022-08-22T22:41:19.184Z,101569.56
2022-08-22T22:43:53.257Z,101570.06
2022-08-22T22:46:27.072Z,101576.94
2022-08-22T22:48:59.024Z,101572.25
2022-08-22T22:51:31.126Z,101570.81
2022-08-22T22:54:03.653Z,101572.16
2022-08-22T22:56:36.554Z,101571.81
2022-08-22T22:59:13.333Z,101568.75
2022-08-22T23:02:16.533Z,101565.66
2022-08-22T23:04:52.378Z,101571.09
2022-08-22T23:07:27.038Z,101568.81
2022-08-22T23:09:59.012Z,101570.41
2022-08-22T23:12:34.596Z,101571.97
2022-08-22T23:15:07.756Z,101563.09
2022-08-22T23:17:40.990Z,101572.13
2022-08-22T23:20:13.088Z,101569.28
2022-08-22T23:22:45.877Z,101558.16
2022-08-22T23:25:17.908Z,101557.00
2022-08-22T23:27:52.475Z,101563.03
2022-08-22T23:30:24.891Z,101567.72
2022-08-22T23:32:56.955Z,101560.19
2022-08-22T23:35:28.856Z,101570.63
2022-08-22T23:38:01.003Z,101565.09
2022-08-22T23:40:32.966Z,101567.84
2022-08-22T23:43:05.054Z,101577.22
2022-08-22T23:45:36.925Z,101575.56
2022-08-22T23:48:08.882Z,101585.41
2022-08-22T23:50:40.773Z,101590.91
2022-08-22T23:53:12.879Z,101586.75
2022-08-22T23:55:44.799Z,101580.91
2022-08-22T23:58:17.096Z,101581.72
